Aviation Digital Data Service (ADDS)

Output produced by METARs form (2107 UTC 18 April 2014)
found at http://aviationweather.gov/adds/metars/
 
KFRG 182053Z 18008KT 10SM CLR 07/01 A3037 RMK AO2 SLP284 T00670006 56027
KISP 182056Z 18006KT 10SM FEW033 BKN250 07/01 A3035 RMK AO2 SLP278 T00720006 56026
KISP 181941Z 1820/1918 15005KT P6SM SCT030 BKN250 
     FM182300 18004KT P6SM SCT030 BKN250 
     FM190200 20003KT P6SM SCT020 BKN150 
     FM190600 24003KT P6SM SCT020 BKN150 
     FM191000 32006KT P6SM SCT250 
     FM191400 32010G18KT P6SM FEW250
       
KJFK 182051Z 21006KT 10SM FEW040 SCT190 OVC260 06/M01 A3039 RMK AO2 SLP289 T00611006 56029 $
KJFK 181941Z 1820/1924 18008KT P6SM SCT030 BKN250 
     FM182300 20007KT P6SM SCT030 BKN250 
     FM190200 20005KT P6SM SCT020 BKN150 
     FM190600 24005KT P6SM SCT020 BKN150 
     FM191000 30007KT P6SM SCT250 
     FM191400 32010G18KT P6SM FEW250 
     FM192000 35015G20KT P6SM SKC
       
KBDR 182052Z 00000KT 10SM CLR 07/M01 A3037 RMK AO2 SLP285 T00721006 58029
KBDR 181941Z 1820/1918 12010KT P6SM SCT030 BKN250 
     FM182300 18007KT P6SM SCT030 BKN250 
     FM190200 VRB03KT P6SM SCT020 BKN150 
     FM190600 VRB03KT P6SM SCT020 BKN150 
     FM191000 30006KT P6SM SCT250 
     FM191400 32012G18KT P6SM FEW250